Time;durP1;ratioP1;P1;durP2;ratioP2;P2;SDS_P1;SDS_P2;PMS_P1;PMS_P2;Temp;Humidity;BMP_temperature;BMP_pressure;BME280_temperature;BME280_humidity;BME280_pressure;Samples;Min_cycle;Max_cycle;Signal;HPM_P1;HPM_P2
2022/07/26 00:01:20;;;;;;;6.05;2.28;;;22.00;99.90;22.30;100012.00;;;;4956353;28;117775;-61
2022/07/26 00:03:48;;;;;;;3.03;1.77;;;22.00;99.90;22.30;100012.00;;;;4955830;28;89855;-62
2022/07/26 00:06:13;;;;;;;3.20;2.28;;;22.00;99.90;22.20;100026.00;;;;4958183;28;87727;-62
2022/07/26 00:08:39;;;;;;;3.15;2.53;;;22.00;99.90;22.20;100034.00;;;;4956792;28;96722;-62
2022/07/26 00:11:05;;;;;;;5.97;2.00;;;22.00;99.90;22.20;100046.00;;;;4956326;28;103013;-62
2022/07/26 00:13:31;;;;;;;4.13;2.38;;;22.00;99.90;22.20;100058.00;;;;4955993;28;101101;-62
2022/07/26 00:15:57;;;;;;;3.28;2.33;;;22.00;99.90;22.20;100058.00;;;;4955826;28;110449;-62
2022/07/26 00:18:23;;;;;;;2.42;2.22;;;21.90;99.90;22.20;100061.00;;;;4956589;28;88030;-61
2022/07/26 00:20:49;;;;;;;3.85;2.13;;;21.90;99.90;22.20;100075.00;;;;4955555;28;90792;-61
2022/07/26 00:23:15;;;;;;;2.65;2.30;;;21.90;99.90;22.20;100060.00;;;;4955879;28;100846;-62
2022/07/26 00:25:41;;;;;;;4.22;2.47;;;21.90;99.90;22.20;100076.00;;;;4955454;28;96801;-61
2022/07/26 00:28:07;;;;;;;3.60;2.25;;;21.90;99.90;22.20;100080.00;;;;4956097;28;94067;-62
2022/07/26 00:30:33;;;;;;;2.90;2.13;;;22.00;99.90;22.20;100093.00;;;;4955147;28;117180;-61
2022/07/26 00:32:59;;;;;;;2.90;2.45;;;22.00;99.90;22.20;100105.00;;;;4955487;28;116486;-62
2022/07/26 00:35:24;;;;;;;4.45;2.10;;;22.00;99.90;22.20;100111.00;;;;4956534;28;87865;-61
2022/07/26 00:37:50;;;;;;;1.55;1.45;;;22.00;99.90;22.20;100113.00;;;;4955621;28;94131;-61
2022/07/26 00:40:16;;;;;;;3.88;2.08;;;22.00;99.90;22.20;100110.00;;;;4954148;28;106299;-62
2022/07/26 00:42:42;;;;;;;2.13;1.88;;;22.00;99.90;22.20;100123.00;;;;4954277;28;118375;-61
2022/07/26 00:45:10;;;;;;;1.58;1.48;;;22.00;99.90;22.20;100120.00;;;;4954840;28;109388;-61
2022/07/26 00:47:36;;;;;;;3.80;1.88;;;22.00;99.90;22.20;100133.00;;;;4937886;28;87879;-61
2022/07/26 00:50:06;;;;;;;2.42;1.38;;;22.00;99.90;22.20;100136.00;;;;4955063;28;89017;-61
2022/07/26 00:52:31;;;;;;;4.03;1.23;;;22.00;99.90;22.20;100132.00;;;;4955187;28;109305;-61
2022/07/26 00:54:57;;;;;;;1.58;1.33;;;22.00;99.90;22.20;100139.00;;;;4936596;28;109622;-62
2022/07/26 00:57:23;;;;;;;3.38;1.45;;;22.00;99.90;22.20;100149.00;;;;4955307;28;108452;-59
2022/07/26 00:59:49;;;;;;;1.95;1.23;;;21.90;99.90;22.20;100151.00;;;;4955527;28;88213;-60
2022/07/26 01:02:15;;;;;;;1.35;1.08;;;21.90;99.90;22.10;100147.00;;;;4954991;28;87889;-60
2022/07/26 01:04:43;;;;;;;1.98;1.33;;;21.90;99.90;22.10;100149.00;;;;4936006;28;110724;-62
2022/07/26 01:07:10;;;;;;;1.60;1.17;;;21.90;99.90;22.00;100152.00;;;;4937991;28;88144;-61
2022/07/26 01:09:37;;;;;;;1.35;1.08;;;21.80;99.90;22.00;100160.00;;;;4955495;28;97696;-61
2022/07/26 01:12:03;;;;;;;2.78;1.65;;;21.80;99.90;22.00;100159.00;;;;4954868;28;106726;-59
2022/07/26 01:14:29;;;;;;;1.50;1.10;;;21.80;99.90;22.00;100153.00;;;;4963590;28;96687;-59
2022/07/26 01:16:55;;;;;;;0.98;0.98;;;21.70;99.90;21.90;100149.00;;;;4974777;28;110445;-61
2022/07/26 01:19:21;;;;;;;0.93;0.93;;;21.70;99.90;21.90;100146.00;;;;4971018;28;101766;-60
2022/07/26 01:21:49;;;;;;;1.55;1.45;;;21.70;99.90;21.90;100160.00;;;;4956029;28;87718;-61
2022/07/26 01:24:14;;;;;;;1.92;1.20;;;21.60;99.90;21.80;100171.00;;;;4955247;28;101241;-61
2022/07/26 01:26:40;;;;;;;1.50;1.10;;;21.60;99.90;21.70;100175.00;;;;4954024;28;107761;-61
2022/07/26 01:29:06;;;;;;;1.50;1.15;;;21.60;99.90;21.70;100179.00;;;;4954254;28;89856;-61
2022/07/26 01:31:32;;;;;;;2.80;1.58;;;21.50;99.90;21.70;100179.00;;;;4954506;28;116678;-61
2022/07/26 01:33:57;;;;;;;1.55;1.13;;;21.50;99.90;21.60;100189.00;;;;4935479;28;111558;-60
2022/07/26 01:36:23;;;;;;;1.55;0.82;;;21.50;99.90;21.60;100192.00;;;;4954313;28;109818;-61
2022/07/26 01:38:49;;;;;;;1.83;1.20;;;21.40;99.90;21.60;100202.00;;;;4953998;28;117138;-60
2022/07/26 01:41:15;;;;;;;1.90;1.15;;;21.40;99.90;21.50;100195.00;;;;4954328;28;94121;-60
2022/07/26 01:43:41;;;;;;;2.00;1.38;;;21.40;99.90;21.50;100199.00;;;;4936728;28;87663;-59
2022/07/26 01:46:08;;;;;;;2.03;1.30;;;21.30;99.90;21.50;100198.00;;;;4955107;28;107943;-60
2022/07/26 01:48:34;;;;;;;1.10;1.00;;;21.30;99.90;21.50;100193.00;;;;4954464;28;97043;-61
2022/07/26 01:51:00;;;;;;;1.17;0.98;;;21.30;99.90;21.50;100184.00;;;;4954579;28;87877;-61
2022/07/26 01:53:26;;;;;;;4.50;1.15;;;21.20;99.90;21.40;100183.00;;;;4953544;28;110139;-58
2022/07/26 01:55:52;;;;;;;1.08;0.88;;;21.20;99.90;21.40;100183.00;;;;4954710;28;96956;-62
2022/07/26 01:58:18;;;;;;;0.85;0.70;;;21.20;99.90;21.40;100184.00;;;;4953907;28;118139;-61
2022/07/26 02:00:43;;;;;;;1.23;0.88;;;21.20;99.90;21.40;100174.00;;;;4953482;28;103618;-61
2022/07/26 02:03:09;;;;;;;2.17;0.85;;;21.20;99.90;21.40;100184.00;;;;4954803;28;87761;-61
2022/07/26 02:05:35;;;;;;;2.17;1.27;;;21.20;99.90;21.40;100188.00;;;;4954116;28;109271;-61
2022/07/26 02:08:01;;;;;;;1.05;0.95;;;21.20;99.90;21.40;100175.00;;;;4954603;28;97690;-61
2022/07/26 02:13:12;;;;;;;1.42;0.85;;;21.10;99.90;21.30;100186.00;;;;4955560;28;88047;-61
2022/07/26 02:15:39;;;;;;;1.30;1.20;;;21.20;99.90;21.30;100180.00;;;;4957796;28;87698;-59
2022/07/26 02:18:05;;;;;;;1.05;0.95;;;21.10;99.90;21.30;100176.00;;;;4957259;28;106739;-61
2022/07/26 02:20:32;;;;;;;1.90;0.93;;;21.10;99.90;21.30;100182.00;;;;4956445;28;109661;-61
2022/07/26 02:23:00;;;;;;;0.98;0.80;;;21.10;99.90;21.20;100167.00;;;;4938731;28;87669;-61
2022/07/26 02:25:26;;;;;;;1.45;1.20;;;21.10;99.90;21.20;100165.00;;;;4951901;28;87835;-61
2022/07/26 02:27:52;;;;;;;1.45;0.98;;;21.00;99.90;21.20;100162.00;;;;4956842;28;117884;-61
2022/07/26 02:30:17;;;;;;;2.72;1.25;;;21.00;99.90;21.10;100163.00;;;;4937888;28;104342;-61
2022/07/26 02:32:43;;;;;;;1.33;1.17;;;21.00;99.90;21.10;100153.00;;;;4957738;28;87593;-61
2022/07/26 02:35:09;;;;;;;1.40;1.20;;;20.90;99.90;21.00;100161.00;;;;4958044;28;87046;-61
2022/07/26 02:37:35;;;;;;;1.20;1.02;;;20.90;99.90;21.00;100162.00;;;;4956988;28;117944;-61
2022/07/26 02:40:01;;;;;;;1.00;0.98;;;20.80;99.90;20.90;100148.00;;;;4957250;28;106396;-61
2022/07/26 02:42:27;;;;;;;1.38;1.25;;;20.80;99.90;20.80;100151.00;;;;4957109;28;88846;-60
2022/07/26 02:44:53;;;;;;;2.45;1.23;;;20.70;99.90;20.80;100156.00;;;;4956946;28;107934;-61
2022/07/26 02:47:19;;;;;;;3.45;1.15;;;20.60;99.90;20.70;100164.00;;;;4956794;28;117876;-60
2022/07/26 02:49:44;;;;;;;2.90;1.10;;;20.60;99.90;20.70;100165.00;;;;4957136;28;108687;-61
2022/07/26 02:52:10;;;;;;;1.23;1.13;;;20.60;99.90;20.70;100170.00;;;;4956820;28;108590;-60
2022/07/26 02:54:36;;;;;;;0.98;0.93;;;20.50;99.90;20.60;100182.00;;;;4957468;28;90498;-61
2022/07/26 02:57:02;;;;;;;1.30;1.20;;;20.50;99.90;20.60;100173.00;;;;4956923;28;118066;-61
2022/07/26 02:59:27;;;;;;;2.17;1.42;;;20.40;99.90;20.60;100187.00;;;;4956312;28;117085;-62
2022/07/26 03:01:53;;;;;;;1.25;0.70;;;20.40;99.90;20.50;100183.00;;;;4957953;28;87810;-62
2022/07/26 03:04:19;;;;;;;1.50;1.20;;;20.40;99.90;20.50;100175.00;;;;4957155;28;87985;-62
2022/07/26 03:06:44;;;;;;;0.98;0.95;;;20.30;99.90;20.50;100179.00;;;;4956094;28;111952;-61
2022/07/26 03:09:10;;;;;;;1.30;1.23;;;20.30;99.90;20.50;100181.00;;;;4957313;28;87970;-60
2022/07/26 03:11:36;;;;;;;4.13;1.25;;;20.40;99.90;20.50;100175.00;;;;4957462;28;88015;-60
2022/07/26 03:14:02;;;;;;;1.48;1.10;;;20.30;99.90;20.50;100177.00;;;;4957332;28;87913;-60
2022/07/26 03:16:28;;;;;;;1.25;1.15;;;20.30;99.90;20.50;100182.00;;;;4956453;28;118368;-60
2022/07/26 03:18:53;;;;;;;2.05;0.98;;;20.30;99.90;20.40;100190.00;;;;4956203;28;117180;-60
2022/07/26 03:21:19;;;;;;;0.93;0.82;;;20.30;99.90;20.40;100193.00;;;;4956537;28;110493;-61
2022/07/26 03:23:45;;;;;;;1.13;0.77;;;20.20;99.90;20.40;100194.00;;;;4957066;28;94379;-61
2022/07/26 03:26:11;;;;;;;0.90;0.80;;;20.30;99.90;20.40;100189.00;;;;4956321;28;117355;-61
2022/07/26 03:28:38;;;;;;;3.10;1.55;;;20.20;99.90;20.40;100186.00;;;;4957445;28;87733;-61
2022/07/26 03:31:04;;;;;;;1.70;1.35;;;20.40;99.90;20.30;100199.00;;;;4956760;28;88543;-61
2022/07/26 03:33:30;;;;;;;1.75;1.00;;;20.10;99.90;20.30;100193.00;;;;4956415;28;108220;-61
2022/07/26 03:36:10;;;;;;;1.63;1.27;;;20.10;99.90;20.20;100196.00;;;;4922526;28;88801;-61
2022/07/26 03:38:36;;;;;;;2.45;1.40;;;20.10;99.90;20.20;100205.00;;;;4956814;28;88332;-60
2022/07/26 03:41:02;;;;;;;1.38;1.23;;;20.00;99.90;20.10;100207.00;;;;4955986;28;108760;-60
2022/07/26 03:43:28;;;;;;;6.30;1.80;;;20.00;99.90;20.10;100206.00;;;;4956690;28;108834;-61
2022/07/26 03:45:54;;;;;;;1.25;1.00;;;19.90;99.90;20.00;100208.00;;;;4957035;28;89156;-60
2022/07/26 03:48:20;;;;;;;3.20;1.30;;;19.90;99.90;20.00;100199.00;;;;4957351;28;87420;-61
2022/07/26 03:50:46;;;;;;;2.25;1.55;;;19.90;99.90;20.00;100208.00;;;;4956548;28;100376;-61
2022/07/26 03:53:11;;;;;;;2.08;1.55;;;19.80;99.90;20.00;100202.00;;;;4956093;28;101835;-61
2022/07/26 03:58:21;;;;;;;2.22;1.10;;;19.80;99.90;20.00;100203.00;;;;4956423;28;87979;-61
2022/07/26 04:00:47;;;;;;;1.67;1.50;;;19.80;99.90;20.00;100207.00;;;;4956274;28;110488;-61
2022/07/26 04:03:13;;;;;;;1.58;1.35;;;19.80;99.90;20.00;100205.00;;;;4957043;28;87900;-61
2022/07/26 04:05:39;;;;;;;4.30;1.80;;;19.80;99.90;20.00;100199.00;;;;4938153;28;88395;-61
2022/07/26 04:08:04;;;;;;;1.27;1.15;;;19.80;99.90;20.10;100207.00;;;;4956224;28;88558;-61
2022/07/26 04:10:30;;;;;;;2.60;1.27;;;19.90;99.90;20.10;100213.00;;;;4955649;28;110273;-61
2022/07/26 04:12:56;;;;;;;1.88;1.40;;;19.90;99.90;20.10;100213.00;;;;4961886;28;108545;-61
2022/07/26 04:15:22;;;;;;;1.80;1.65;;;19.90;99.90;20.10;100215.00;;;;4955098;28;117512;-61
2022/07/26 04:17:47;;;;;;;1.80;1.70;;;19.90;99.90;20.10;100200.00;;;;4937479;28;116145;-61
2022/07/26 04:20:14;;;;;;;2.25;1.85;;;19.90;99.90;20.10;100205.00;;;;4955894;28;88745;-61
2022/07/26 04:22:40;;;;;;;2.92;1.77;;;19.90;99.90;20.10;100203.00;;;;4920199;28;93025;-62
2022/07/26 04:25:08;;;;;;;1.52;1.42;;;19.90;99.90;20.20;100207.00;;;;4956527;28;105468;-61
2022/07/26 04:27:34;;;;;;;2.20;1.67;;;20.00;99.90;20.20;100199.00;;;;4956509;28;90931;-62
2022/07/26 04:30:00;;;;;;;2.00;1.83;;;20.00;99.90;20.20;100198.00;;;;4955876;28;100018;-62
2022/07/26 04:32:26;;;;;;;1.80;1.70;;;20.00;99.90;20.20;100203.00;;;;4956159;28;99773;-61
2022/07/26 04:34:53;;;;;;;2.63;2.17;;;20.10;99.90;20.20;100209.00;;;;4955706;28;88034;-61
2022/07/26 04:37:18;;;;;;;2.05;1.58;;;20.10;99.90;20.20;100206.00;;;;4955758;28;88794;-61
2022/07/26 04:39:44;;;;;;;2.83;1.77;;;20.10;99.90;20.30;100214.00;;;;4954160;28;109390;-61
2022/07/26 04:42:10;;;;;;;3.45;2.22;;;20.10;99.90;20.30;100209.00;;;;4952248;28;87686;-61
2022/07/26 04:44:37;;;;;;;2.90;1.83;;;20.10;99.90;20.30;100213.00;;;;4951739;28;89185;-61
2022/07/26 04:47:03;;;;;;;1.92;1.55;;;20.10;99.90;20.30;100206.00;;;;4952232;28;89396;-61
2022/07/26 04:49:29;;;;;;;2.50;2.30;;;20.10;99.90;20.40;100215.00;;;;4955744;28;98926;-60
2022/07/26 04:51:55;;;;;;;3.25;2.47;;;20.20;99.90;20.40;100205.00;;;;4954802;28;108426;-60
2022/07/26 04:54:21;;;;;;;1.40;1.30;;;20.20;99.90;20.40;100204.00;;;;4955352;28;117879;-61
2022/07/26 04:56:48;;;;;;;2.47;1.92;;;20.20;99.90;20.40;100204.00;;;;4955744;28;87923;-61
2022/07/26 04:59:16;;;;;;;6.78;2.05;;;20.20;99.90;20.40;100206.00;;;;4955952;28;88045;-61
2022/07/26 05:01:43;;;;;;;6.63;1.67;;;20.20;99.90;20.40;100206.00;;;;4956291;28;87033;-62
2022/07/26 05:04:09;;;;;;;2.67;1.75;;;20.20;99.90;20.50;100212.00;;;;4955873;28;88111;-61
2022/07/26 05:06:35;;;;;;;2.60;2.40;;;20.20;99.90;20.50;100208.00;;;;4955119;28;114283;-61
2022/07/26 05:09:01;;;;;;;2.85;1.95;;;20.30;99.90;20.50;100207.00;;;;4955253;28;88710;-61
2022/07/26 05:11:27;;;;;;;5.13;2.38;;;20.30;99.90;20.50;100216.00;;;;4956248;28;87783;-61
2022/07/26 05:13:53;;;;;;;1.83;1.70;;;20.30;99.90;20.50;100217.00;;;;4954340;28;116977;-61
2022/07/26 05:16:19;;;;;;;2.05;1.60;;;20.30;99.90;20.50;100226.00;;;;4955641;28;114239;-61
2022/07/26 05:18:44;;;;;;;2.80;1.92;;;20.30;99.90;20.50;100240.00;;;;4955564;28;87656;-62
2022/07/26 05:21:10;;;;;;;3.17;2.47;;;20.30;99.90;20.50;100251.00;;;;4954746;28;104568;-62
2022/07/26 05:23:36;;;;;;;3.92;2.13;;;20.30;99.90;20.40;100244.00;;;;4955625;28;87737;-62
2022/07/26 05:26:02;;;;;;;2.35;2.15;;;20.30;99.90;20.20;100246.00;;;;4937292;28;116129;-61
2022/07/26 05:28:27;;;;;;;5.43;2.03;;;20.10;99.90;19.90;100238.00;;;;4954646;28;110137;-61
2022/07/26 05:30:53;;;;;;;1.98;1.88;;;19.90;99.90;19.70;100259.00;;;;4955333;28;92955;-61
2022/07/26 05:33:19;;;;;;;3.70;2.13;;;19.70;99.90;19.50;100265.00;;;;4954015;28;118011;-61
2022/07/26 05:35:44;;;;;;;5.43;2.75;;;19.50;99.90;19.40;100261.00;;;;4971894;28;118733;-61
2022/07/26 05:38:10;;;;;;;3.72;2.35;;;19.30;99.90;19.30;100260.00;;;;4955173;28;108733;-60
2022/07/26 05:40:36;;;;;;;3.97;2.17;;;19.20;99.90;19.20;100254.00;;;;4955614;28;98696;-61
2022/07/26 05:43:02;;;;;;;4.50;2.90;;;19.20;99.90;19.20;100248.00;;;;4954750;28;115982;-60
2022/07/26 05:45:27;;;;;;;6.03;2.88;;;19.10;99.90;19.10;100250.00;;;;4954940;28;87775;-61
2022/07/26 05:47:54;;;;;;;4.80;3.60;;;19.00;99.90;19.10;100237.00;;;;4954006;28;101091;-60
2022/07/26 05:50:20;;;;;;;5.20;3.45;;;19.00;99.90;19.20;100241.00;;;;4955893;28;86928;-60
2022/07/26 05:52:45;;;;;;;4.25;2.72;;;19.00;99.90;19.20;100240.00;;;;4955180;28;109793;-60
2022/07/26 05:55:11;;;;;;;4.07;2.67;;;19.10;99.90;19.30;100230.00;;;;4954393;28;118691;-59
2022/07/26 05:57:40;;;;;;;3.17;2.88;;;19.10;99.90;19.40;100247.00;;;;4955174;28;92668;-60
2022/07/26 06:00:09;;;;;;;2.17;2.08;;;19.20;99.90;19.50;100245.00;;;;4955713;28;87705;-60
2022/07/26 06:02:34;;;;;;;5.93;3.55;;;19.20;99.90;19.60;100250.00;;;;4955544;28;87920;-60
2022/07/26 06:05:00;;;;;;;3.15;2.38;;;19.40;99.90;19.70;100241.00;;;;4954546;28;116565;-61
2022/07/26 06:07:26;;;;;;;2.97;2.67;;;19.50;99.90;19.80;100244.00;;;;4953981;28;111319;-60
2022/07/26 06:09:52;;;;;;;5.57;3.35;;;19.60;99.90;19.90;100251.00;;;;4955620;28;87957;-60
2022/07/26 06:12:17;;;;;;;4.13;2.60;;;19.70;99.90;20.00;100251.00;;;;4953712;28;114932;-60
2022/07/26 06:14:43;;;;;;;2.67;2.25;;;19.80;99.90;20.10;100255.00;;;;4936753;28;87595;-61
2022/07/26 06:17:09;;;;;;;2.28;1.95;;;19.90;99.90;20.20;100255.00;;;;4936915;28;87682;-59
2022/07/26 06:19:35;;;;;;;3.40;2.20;;;20.00;99.90;20.30;100256.00;;;;4954705;28;109929;-61
2022/07/26 06:22:01;;;;;;;6.82;3.53;;;20.10;99.90;20.40;100255.00;;;;4936365;28;89293;-61
2022/07/26 06:24:26;;;;;;;2.63;2.17;;;20.10;99.90;20.50;100250.00;;;;4954060;28;117180;-61
2022/07/26 06:26:54;;;;;;;6.75;2.85;;;20.30;99.90;20.60;100253.00;;;;4954640;28;87780;-61
2022/07/26 06:29:20;;;;;;;7.40;2.47;;;20.40;99.90;20.80;100258.00;;;;4955101;28;87817;-61
2022/07/26 06:31:46;;;;;;;4.95;3.08;;;20.50;99.90;20.90;100252.00;;;;4954922;28;87999;-61
2022/07/26 06:34:12;;;;;;;3.25;2.22;;;20.60;99.90;21.10;100257.00;;;;4954253;28;88869;-61
2022/07/26 06:36:38;;;;;;;4.45;2.90;;;20.80;99.90;21.20;100259.00;;;;4953479;28;110073;-60
2022/07/26 06:39:03;;;;;;;5.85;2.88;;;20.90;99.90;21.40;100264.00;;;;4954352;28;106899;-62
2022/07/26 06:41:29;;;;;;;3.35;2.50;;;21.10;99.90;21.50;100266.00;;;;4953318;28;117667;-61
2022/07/26 06:43:55;;;;;;;2.97;2.22;;;21.10;99.90;21.70;100275.00;;;;4953798;28;107614;-61
2022/07/26 06:46:21;;;;;;;2.85;2.63;;;21.40;99.90;21.80;100279.00;;;;4954411;28;88806;-61
2022/07/26 06:48:48;;;;;;;3.63;2.60;;;21.50;99.90;22.00;100273.00;;;;4954758;28;87668;-61
2022/07/26 06:51:13;;;;;;;3.55;2.40;;;21.70;99.90;22.10;100276.00;;;;4954240;28;88553;-62
2022/07/26 06:53:39;;;;;;;3.78;2.45;;;21.80;99.90;22.20;100280.00;;;;4953616;28;102992;-61
2022/07/26 06:56:05;;;;;;;5.18;2.38;;;22.00;99.90;22.30;100279.00;;;;4952907;28;110072;-62
2022/07/26 06:58:31;;;;;;;7.57;2.78;;;22.10;99.90;22.40;100274.00;;;;4953577;28;95959;-62
2022/07/26 07:00:57;;;;;;;2.42;2.00;;;22.20;99.90;22.50;100273.00;;;;4956551;28;117551;-62
2022/07/26 07:03:22;;;;;;;3.10;2.80;;;22.30;99.90;22.70;100271.00;;;;4958641;28;87188;-61
2022/07/26 07:05:48;;;;;;;3.42;2.20;;;22.40;99.90;22.80;100281.00;;;;4956747;28;110717;-61
2022/07/26 07:08:14;;;;;;;4.57;3.15;;;22.60;99.90;23.00;100282.00;;;;4956353;28;108034;-61
2022/07/26 07:10:40;;;;;;;3.88;2.50;;;22.70;99.90;23.10;100283.00;;;;4956330;28;95266;-61
2022/07/26 07:13:06;;;;;;;3.15;2.72;;;22.90;99.90;23.20;100279.00;;;;4957934;28;89570;-61
2022/07/26 07:15:31;;;;;;;4.05;2.63;;;23.00;99.90;23.20;100282.00;;;;4956309;28;110945;-62
2022/07/26 07:17:57;;;;;;;2.50;2.30;;;23.00;99.90;23.20;100279.00;;;;4956510;28;110270;-61
2022/07/26 07:20:23;;;;;;;1.92;1.77;;;23.10;99.90;23.30;100288.00;;;;4957120;28;97730;-61
2022/07/26 07:22:48;;;;;;;5.57;2.85;;;23.10;99.90;23.30;100281.00;;;;4956240;28;117504;-61
2022/07/26 07:25:14;;;;;;;3.15;1.85;;;23.10;99.90;23.30;100289.00;;;;4956698;28;111212;-61
2022/07/26 07:27:40;;;;;;;2.70;1.98;;;23.10;99.90;23.40;100279.00;;;;4956783;28;108497;-62
2022/07/26 07:30:08;;;;;;;6.63;2.80;;;23.10;99.90;23.50;100279.00;;;;4957108;28;88444;-62
2022/07/26 07:32:34;;;;;;;2.60;2.30;;;23.20;99.90;23.60;100282.00;;;;4937360;28;88643;-61
2022/07/26 07:34:59;;;;;;;2.50;2.25;;;23.30;99.90;23.70;100272.00;;;;4928176;28;110512;-61
2022/07/26 07:37:25;;;;;;;4.63;2.60;;;23.40;99.90;23.90;100282.00;;;;4952486;28;107273;-61
2022/07/26 07:39:51;;;;;;;3.80;2.45;;;23.60;99.90;24.10;100268.00;;;;4957071;28;88969;-61
2022/07/26 07:42:18;;;;;;;4.38;2.85;;;23.80;99.90;24.20;100266.00;;;;4956736;28;88586;-61
2022/07/26 07:44:43;;;;;;;4.63;2.50;;;23.90;99.90;24.30;100258.00;;;;4957112;28;87720;-61
2022/07/26 07:47:09;;;;;;;3.45;2.90;;;24.10;99.90;24.40;100268.00;;;;4956737;28;87669;-61
2022/07/26 07:49:35;;;;;;;3.10;2.60;;;24.10;99.90;24.40;100269.00;;;;4955850;28;116477;-61
2022/07/26 07:52:01;;;;;;;3.83;2.70;;;24.10;99.90;24.40;100274.00;;;;4955620;28;94823;-61
2022/07/26 07:54:26;;;;;;;6.90;3.67;;;24.20;99.40;24.50;100284.00;;;;4955288;28;111301;-62
2022/07/26 07:56:55;;;;;;;4.63;3.75;;;24.30;98.80;24.60;100278.00;;;;4955862;28;108460;-62
2022/07/26 07:59:21;;;;;;;5.07;3.38;;;24.40;98.30;24.60;100271.00;;;;4956169;28;89834;-62
2022/07/26 08:01:47;;;;;;;6.85;4.03;;;24.40;96.30;24.60;100271.00;;;;4956769;28;89056;-62
2022/07/26 08:04:13;;;;;;;4.95;2.83;;;24.40;95.30;24.60;100275.00;;;;4956965;28;87625;-62
2022/07/26 08:06:39;;;;;;;3.38;2.15;;;24.40;95.10;24.70;100274.00;;;;4956925;28;87657;-62
2022/07/26 08:09:05;;;;;;;2.85;2.33;;;24.40;94.40;24.80;100271.00;;;;4956971;28;89049;-61
2022/07/26 08:11:30;;;;;;;2.45;1.98;;;24.50;94.00;24.90;100273.00;;;;4949758;28;117127;-61
2022/07/26 08:13:56;;;;;;;3.05;1.90;;;24.60;93.50;25.00;100280.00;;;;4938092;28;88057;-61
2022/07/26 08:16:22;;;;;;;4.78;2.20;;;24.70;93.20;25.10;100266.00;;;;4956110;28;107970;-61
2022/07/26 08:18:47;;;;;;;3.72;1.80;;;24.80;93.10;25.20;100270.00;;;;4955630;28;108760;-62
2022/07/26 08:21:13;;;;;;;1.48;1.27;;;24.90;92.50;25.20;100273.00;;;;4955911;28;116216;-61
2022/07/26 08:23:39;;;;;;;2.60;1.25;;;24.90;91.80;25.20;100280.00;;;;4954481;28;110335;-62
2022/07/26 08:26:05;;;;;;;3.20;1.35;;;24.90;91.10;25.20;100285.00;;;;4955455;28;108701;-62
2022/07/26 08:28:30;;;;;;;1.40;1.30;;;24.90;90.70;25.00;100281.00;;;;4955370;28;98792;-62
2022/07/26 08:30:57;;;;;;;2.03;1.20;;;24.80;90.00;24.90;100287.00;;;;4955920;28;113563;-61
2022/07/26 08:33:22;;;;;;;1.60;1.30;;;24.70;89.60;24.70;100292.00;;;;4956458;28;87852;-61
2022/07/26 08:35:48;;;;;;;1.73;1.05;;;24.60;88.50;24.70;100288.00;;;;4954658;28;107107;-60
2022/07/26 08:38:14;;;;;;;1.20;0.98;;;24.40;88.60;24.70;100284.00;;;;4955126;28;99913;-60
2022/07/26 08:40:40;;;;;;;1.88;1.23;;;24.50;88.40;24.80;100288.00;;;;4954043;28;117773;-61
2022/07/26 08:43:07;;;;;;;0.70;0.70;;;24.60;88.00;24.90;100295.00;;;;4955477;28;109229;-61
2022/07/26 08:45:33;;;;;;;2.55;1.00;;;24.60;87.00;25.10;100291.00;;;;4955799;28;87664;-60
2022/07/26 08:48:00;;;;;;;2.92;1.40;;;24.80;86.10;25.30;100290.00;;;;4955680;28;91432;-60
2022/07/26 08:50:27;;;;;;;1.10;1.00;;;24.90;85.40;25.50;100300.00;;;;4955734;28;88106;-61
2022/07/26 08:53:00;;;;;;;1.83;1.48;;;25.10;84.70;25.80;100306.00;;;;4956057;28;88337;-61
2022/07/26 08:55:26;;;;;;;5.07;1.70;;;25.40;83.10;26.00;100300.00;;;;4956024;28;87718;-62
2022/07/26 08:57:52;;;;;;;1.33;1.10;;;25.60;80.90;26.30;100293.00;;;;4955276;28;116141;-62
2022/07/26 09:00:21;;;;;;;3.63;1.60;;;25.80;77.80;26.50;100296.00;;;;4954619;28;92107;-62
2022/07/26 09:02:48;;;;;;;1.23;0.85;;;26.10;76.10;26.70;100298.00;;;;4956554;28;87701;-62
2022/07/26 09:05:14;;;;;;;2.10;1.10;;;26.30;73.10;26.80;100301.00;;;;4935400;28;110622;-62
2022/07/26 09:07:40;;;;;;;1.23;0.93;;;26.40;70.00;26.80;100301.00;;;;4955263;28;87750;-62
2022/07/26 09:10:09;;;;;;;1.67;1.58;;;26.50;67.60;26.90;100302.00;;;;4953785;28;112894;-61
2022/07/26 09:12:36;;;;;;;1.80;0.70;;;26.60;66.80;27.00;100307.00;;;;4954502;28;103529;-62
2022/07/26 09:15:06;;;;;;;1.20;0.65;;;26.70;64.70;27.10;100316.00;;;;4955433;28;87919;-61
2022/07/26 09:17:42;;;;;;;1.35;0.90;;;26.70;63.40;27.30;100308.00;;;;4955234;28;88072;-63
2022/07/26 09:20:09;;;;;;;0.82;0.80;;;26.90;62.20;27.50;100313.00;;;;4954624;28;89042;-62
2022/07/26 09:22:38;;;;;;;0.57;0.40;;;27.10;63.20;27.80;100315.00;;;;4955607;28;87544;-61
2022/07/26 09:25:21;;;;;;;1.30;0.77;;;27.40;62.00;28.00;100305.00;;;;4955971;28;88069;-61
2022/07/26 09:27:46;;;;;;;0.95;0.88;;;27.60;59.70;28.10;100300.00;;;;4954908;28;89083;-62
2022/07/26 09:30:12;;;;;;;0.38;0.38;;;27.70;58.40;28.10;100307.00;;;;4955418;28;86952;-61
2022/07/26 09:32:38;;;;;;;0.70;0.50;;;27.70;58.10;28.20;100304.00;;;;4954679;28;94893;-61
2022/07/26 09:35:17;;;;;;;0.65;0.65;;;27.90;57.90;28.30;100311.00;;;;4955426;28;96987;-61
2022/07/26 09:37:45;;;;;;;3.75;0.80;;;28.00;57.10;28.30;100312.00;;;;4954303;28;89688;-61
2022/07/26 09:40:14;;;;;;;0.88;0.63;;;28.00;56.40;28.30;100320.00;;;;4955204;28;87995;-61
2022/07/26 09:42:58;;;;;;;0.73;0.73;;;28.00;55.70;28.10;100317.00;;;;4955565;28;87968;-62
2022/07/26 09:45:26;;;;;;;0.85;0.60;;;27.90;54.90;28.00;100320.00;;;;4954524;28;87899;-61
2022/07/26 09:47:52;;;;;;;0.68;0.60;;;27.80;55.20;28.00;100315.00;;;;4954639;28;88044;-62
2022/07/26 09:50:23;;;;;;;0.90;0.63;;;27.70;55.30;28.10;100320.00;;;;4935441;28;111956;-61
2022/07/26 09:53:11;;;;;;;0.73;0.68;;;27.70;55.40;28.30;100312.00;;;;4954766;28;102249;-60
2022/07/26 09:55:43;;;;;;;0.88;0.70;;;27.90;55.40;28.40;100330.00;;;;4955105;28;86880;-61
2022/07/26 09:58:14;;;;;;;0.28;0.22;;;28.10;54.90;28.50;100322.00;;;;4953816;28;112354;-62
2022/07/26 10:00:42;;;;;;;0.63;0.63;;;28.10;53.50;28.50;100324.00;;;;4954763;28;87852;-62
2022/07/26 10:03:08;;;;;;;0.77;0.73;;;28.10;53.70;28.50;100317.00;;;;4954447;28;88865;-62
2022/07/26 10:05:36;;;;;;;1.98;1.13;;;28.20;52.70;28.30;100320.00;;;;4954244;28;87896;-62
2022/07/26 10:08:03;;;;;;;0.70;0.50;;;28.10;52.50;28.20;100310.00;;;;4936243;28;87977;-62
2022/07/26 10:10:54;;;;;;;0.77;0.77;;;27.90;52.70;28.10;100309.00;;;;4935647;28;88155;-62
2022/07/26 10:13:21;;;;;;;2.13;0.57;;;27.80;53.20;28.20;100324.00;;;;4936093;28;87712;-62
2022/07/26 10:15:49;;;;;;;0.98;0.80;;;27.70;53.20;28.40;100326.00;;;;4954919;28;87736;-63
2022/07/26 10:18:37;;;;;;;1.27;0.65;;;27.90;52.60;28.40;100319.00;;;;4954129;28;88906;-62
2022/07/26 10:21:14;;;;;;;0.60;0.50;;;28.00;51.40;28.20;100324.00;;;;4954310;28;87325;-63
2022/07/26 10:23:43;;;;;;;1.23;0.77;;;27.90;51.40;28.00;100330.00;;;;4953242;28;107093;-63
2022/07/26 10:26:35;;;;;;;1.95;1.10;;;27.70;52.00;27.90;100337.00;;;;4954257;28;88039;-63
2022/07/26 10:29:15;;;;;;;0.88;0.77;;;27.60;52.40;27.60;100335.00;;;;4953332;28;89977;-63
2022/07/26 10:32:01;;;;;;;1.75;0.85;;;27.40;52.00;27.60;100326.00;;;;4954245;28;88780;-64
2022/07/26 10:34:36;;;;;;;2.75;0.57;;;27.30;52.60;27.90;100321.00;;;;4941095;28;87986;-64
2022/07/26 10:37:06;;;;;;;0.80;0.55;;;27.40;52.90;28.30;100331.00;;;;4957118;28;101304;-63
2022/07/26 10:39:32;;;;;;;0.63;0.30;;;27.70;52.30;28.70;100330.00;;;;4957335;28;87916;-63
2022/07/26 10:42:01;;;;;;;1.33;0.57;;;28.40;51.70;29.00;100332.00;;;;4955999;28;118515;-64
2022/07/26 10:44:32;;;;;;;1.05;0.60;;;28.40;51.20;29.10;100342.00;;;;4956821;28;99357;-64
2022/07/26 10:47:07;;;;;;;0.40;0.40;;;28.50;50.40;28.80;100335.00;;;;4958286;28;86850;-63
2022/07/26 10:49:36;;;;;;;0.50;0.40;;;28.50;48.20;28.40;100339.00;;;;4956985;28;96419;-64